Weather at Black Hawk Heliport

Public forecast

Using degrees Fahrenheit for public forecast. Weather courtesy of forecast.io.

Closest aviation weather report (METAR) to Black Hawk Heliport

Closest report is Quad City International Airport, 15.3 nm (28.3 km) W. Retrieved 2021/08/02 11:52 UTC (9 minutes ago):

KMLI 021152Z 00000KT 8SM FU CLR 14/13 A3019 RMK AO2 SLP221 T01440128 10156 20128 53011

Closest aviation forecast (TAF) to Black Hawk Heliport

Closest forecast is Quad City International Airport, 15.3 nm (28.3 km) W. Retrieved 2021/08/02 12:22 UTC (0 seconds ago):

TAF KMLI 021120Z 0212/0312 03004KT P6SM SCT050 FM030900 VRB02KT 6SM BR FEW080